首页
METAR-TAF:

METAR-TAF

机场 :

Fort St. John, 不列颠哥伦比亚, 加拿大

纬度: 56-14N, 经度: 120-44W, 海拔: 695米

当前天气观测

该预报发布于1小时和14分钟前的20:00 UTC
风速13节,风向西转西南
温度 24°C
湿度 34%
气压 1007 hPa
能見度: 24.1公里
少量云层高于6400英尺, 塔状积云.
少量云层高于17000英尺
多云层高于22000英尺

METAR: CYXJ 222000Z 25013KT 15SM FEW064TCU FEW170 BKN220 24/07 A2973 RMK TCU1AC1CI6 TCU TR HZ SLP071 DENSITY ALT 4100FT

时间: 14:14 (21:14 UTC)

预报

该预报发布于2小时和34分钟前的18:40 UTC
预报有效从22日的 19点(UTC)到 23日的 07点(UTC)
风速7节,风向
能見度: 10公里
少量云层高于7000英尺
多云层高于24000英尺
从 22日的 2100点(UTC)
风速15节,风向西南
能見度: 10公里
散云层高于8000英尺
多云层高于14000英尺
从 23日的 0000点(UTC)
风速12节,风向南转西南
能見度: 10公里
多云层高于10000英尺
从 23日的 0300点(UTC)
风速10节,风向
能見度: 10公里
少量云层高于10000英尺
散云层高于25000英尺

TAF: CYXJ 221840Z 2219/2307 19007KT P6SM FEW070 BKN240 FM222100 23015KT P6SM SCT080 BKN140 FM230000 20012KT P6SM BKN100 FM230300 19010KT P6SM FEW100 SCT250 RMK NXT FCST BY 230100Z

超过4000个机场的气象观测和天气预报(METAR&TAF报告)。

可查询的气象台以黄色和红色小点在地图上表示。

将鼠标移到小点上方,可查看气象台名称。

然后点击查看天气观测和预报。

如需切换地图:点击带黑十字的绿色按钮放大地图;点击带横线的绿色按钮缩小地图;或者点击绿色箭头查看邻近地区的地图。


METAR-TAF: